Аэропорт: Михайловка. Барнаул

ICAO: UNBB

METAR:
2019-09-21 15:30:00
UNBB 211530Z 07002MPS CAVOK 12/00 Q1022 R06/CLRD66 NOSIG RMK QFE744
METAR:
2019-09-21 14:00:00
TAF UNBB 211400Z 2115/2215 08003G08MPS CAVOK TEMPO 2118/2202 3100 BR FEW004 SCT011 BECMG 2208/2209 16005G10MPS